Pagina principale
METAR-TAF:

METAR-TAF

Aeroporti :

Uden, Paesi Bassi

latitudine: 51-39N, longitudine: 005-42E, altezza: 22 m

Osservazione

Il bollettino è stato emesso 44 minuti fa, alle 14:55 UTC
Vento 6 kt da sud-est, variando fra sud-est e sud/sud-ovest
Temperature 32°C
Umidità 38%
Pressione 1017 hPa
Visibilità 10 km o più
Cielo coperto ad un'altezza di 33000 ft

METAR: EHVK 241455Z AUTO 14006KT 130V200 9999 OVC330 32/16 Q1017 BLU

Ora: 17:39 (15:39 UTC)

Previsione

Il bollettino è stato emesso 3 ore e 9 minuti fa, alle 12:30 UTC
Previsione valida dal 24 alle 13 UTC al 25 alle 01 UTC
Vento 8 kt da sud-est
Visibilità 10 km o più
nessuna nube inferiore a 1500 m e nessun cumulonembo

TAF: EHVK 241230Z 2413/2501 14008KT CAVOK

Osservazioni e previsioni meteorologiche di più di 4000 aeroporti (messaggi METAR e TAF).

Le stazioni disponibili sono rappresentate dai dischi gialli e rossi sulla carta.

Puntare il mouse per vedere il nome della stazione.

Clicca sopra per visualizzare le osservazioni e previsioni meteorologiche.

Per cambiare la mappa : fare clic sui pulsanti verdi con una croce nera per ingrandire, il pulsante verde con un trattino per diminuire, o sulla freccia verde per le mappe adiacenti.


METAR-TAF: